首页
METAR-TAF:

METAR-TAF

机场 :

科纳克里国际机场

科納克里, 几内亚

纬度: 09-34N, 经度: 013-37W, 海拔: 26米

当前天气观测

该预报发布于1小时和58分钟前的09:00 UTC
风速8节,风向西
温度 28°C
湿度 70%
气压 1012 hPa
能见度10公里或以上
1500米以下无云,无积雨云

METAR: GUCY 240900Z 27008KT CAVOK 28/22 Q1012 NOSIG

时间: 10:58 (10:58 UTC)

预报

该预报发布于5小时和58分钟前的05:00 UTC
预报有效从24日的 06点(UTC)到 25日的 12点(UTC)
风速6节,风向西转西北
能见度10公里或以上
少量云层高于1600英尺
散云层高于12000英尺
成为
从 24日的 06点(UTC)到 24日的 10点(UTC)
风速8节,风向西南
散云层高于12000英尺
短暂存在
从 24日的 22点(UTC)到 25日的 03点(UTC)
风速2节,风向多变
能见度10公里或以上
1500米以下无云,无积雨云

TAF: GUCY 240500Z 2406/2512 30006KT 9999 FEW016 SCT120 BECMG 2406/2410 23008KT SCT15 SCT120 TEMPO 2422/2503 VRB02KT CAVOK

超过4000个机场的气象观测和天气预报(METAR&TAF报告)。

可查询的气象台以黄色和红色小点在地图上表示。

将鼠标移到小点上方,可查看气象台名称。

然后点击查看天气观测和预报。

如需切换地图:点击带黑十字的绿色按钮放大地图;点击带横线的绿色按钮缩小地图;或者点击绿色箭头查看邻近地区的地图。


METAR-TAF: